sensor_id;sensor_type;location;lat;lon;timestamp;pressure;altitude;pressure_sealevel;temperature;humidity
81379;BME280;70830;42.290;-71.354;2024-01-30T00:02:14;101058.41;;;1.30;67.09
81379;BME280;70830;42.290;-71.354;2024-01-30T00:04:40;101075.75;;;1.32;67.26
81379;BME280;70830;42.290;-71.354;2024-01-30T00:07:06;101056.66;;;1.18;66.60
81379;BME280;70830;42.290;-71.354;2024-01-30T00:09:32;101070.53;;;1.26;65.66
81379;BME280;70830;42.290;-71.354;2024-01-30T00:11:58;101051.47;;;1.18;66.38
81379;BME280;70830;42.290;-71.354;2024-01-30T00:14:24;101080.06;;;1.32;66.07
81379;BME280;70830;42.290;-71.354;2024-01-30T00:16:51;101074.00;;;1.25;66.13
81379;BME280;70830;42.290;-71.354;2024-01-30T00:19:17;101089.56;;;1.31;65.74
81379;BME280;70830;42.290;-71.354;2024-01-30T00:21:43;101094.78;;;1.31;65.32
81379;BME280;70830;42.290;-71.354;2024-01-30T00:24:09;101099.97;;;1.31;65.40
81379;BME280;70830;42.290;-71.354;2024-01-30T00:26:35;101096.50;;;1.29;65.58
81379;BME280;70830;42.290;-71.354;2024-01-30T00:29:01;101112.09;;;1.34;66.26
81379;BME280;70830;42.290;-71.354;2024-01-30T00:31:27;101116.44;;;1.32;63.84
81379;BME280;70830;42.290;-71.354;2024-01-30T00:33:53;101103.44;;;1.26;65.56
81379;BME280;70830;42.290;-71.354;2024-01-30T00:36:19;101108.63;;;1.27;65.00
81379;BME280;70830;42.290;-71.354;2024-01-30T00:38:45;101119.00;;;1.27;66.00
81379;BME280;70830;42.290;-71.354;2024-01-30T00:41:11;101122.47;;;1.25;64.80
81379;BME280;70830;42.290;-71.354;2024-01-30T00:43:37;101117.25;;;1.19;65.30
81379;BME280;70830;42.290;-71.354;2024-01-30T00:46:03;101107.72;;;1.18;65.57
81379;BME280;70830;42.290;-71.354;2024-01-30T00:48:29;101148.50;;;1.35;65.14
81379;BME280;70830;42.290;-71.354;2024-01-30T00:50:55;101145.00;;;1.36;65.29
81379;BME280;70830;42.290;-71.354;2024-01-30T00:53:21;101125.03;;;1.20;66.25
81379;BME280;70830;42.290;-71.354;2024-01-30T00:55:47;101142.41;;;1.29;64.60
81379;BME280;70830;42.290;-71.354;2024-01-30T00:58:12;101142.38;;;1.26;64.52
81379;BME280;70830;42.290;-71.354;2024-01-30T01:00:39;101141.50;;;1.22;64.12
81379;BME280;70830;42.290;-71.354;2024-01-30T01:03:04;101156.25;;;1.34;65.42
81379;BME280;70830;42.290;-71.354;2024-01-30T01:05:31;101158.00;;;1.30;65.11
81379;BME280;70830;42.290;-71.354;2024-01-30T01:07:56;101145.84;;;1.26;64.66
81379;BME280;70830;42.290;-71.354;2024-01-30T01:10:23;101171.88;;;1.37;64.80
81379;BME280;70830;42.290;-71.354;2024-01-30T01:12:49;101177.06;;;1.38;64.36
81379;BME280;70830;42.290;-71.354;2024-01-30T01:15:15;101164.06;;;1.32;64.71
81379;BME280;70830;42.290;-71.354;2024-01-30T01:17:41;101191.78;;;1.36;65.13
81379;BME280;70830;42.290;-71.354;2024-01-30T01:20:07;101183.97;;;1.38;65.41
81379;BME280;70830;42.290;-71.354;2024-01-30T01:22:34;101194.38;;;1.38;64.78
81379;BME280;70830;42.290;-71.354;2024-01-30T01:25:00;101190.91;;;1.34;63.88
81379;BME280;70830;42.290;-71.354;2024-01-30T01:27:27;101199.56;;;1.35;65.51
81379;BME280;70830;42.290;-71.354;2024-01-30T01:29:53;101176.16;;;1.24;64.89
81379;BME280;70830;42.290;-71.354;2024-01-30T01:32:20;101196.94;;;1.33;64.73
81379;BME280;70830;42.290;-71.354;2024-01-30T01:34:45;101184.78;;;1.25;65.01
81379;BME280;70830;42.290;-71.354;2024-01-30T01:37:11;101206.47;;;1.34;65.16
81379;BME280;70830;42.290;-71.354;2024-01-30T01:39:37;101172.66;;;1.22;65.43
81379;BME280;70830;42.290;-71.354;2024-01-30T01:42:04;101183.97;;;1.29;65.44
81379;BME280;70830;42.290;-71.354;2024-01-30T01:44:29;101203.03;;;1.37;66.15
81379;BME280;70830;42.290;-71.354;2024-01-30T01:46:56;101201.28;;;1.36;65.51
81379;BME280;70830;42.290;-71.354;2024-01-30T01:49:25;101192.59;;;1.28;65.55
81379;BME280;70830;42.290;-71.354;2024-01-30T01:51:54;101214.28;;;1.34;65.74
81379;BME280;70830;42.290;-71.354;2024-01-30T01:54:22;101184.78;;;1.17;65.24
81379;BME280;70830;42.290;-71.354;2024-01-30T01:56:50;101218.59;;;1.31;65.89
81379;BME280;70830;42.290;-71.354;2024-01-30T01:59:17;101225.50;;;1.30;66.10
81379;BME280;70830;42.290;-71.354;2024-01-30T02:01:44;101226.38;;;1.31;65.88
81379;BME280;70830;42.290;-71.354;2024-01-30T02:04:11;101233.31;;;1.30;65.47
81379;BME280;70830;42.290;-71.354;2024-01-30T02:06:38;101222.84;;;1.18;65.34
81379;BME280;70830;42.290;-71.354;2024-01-30T02:09:04;101246.28;;;1.29;66.17
81379;BME280;70830;42.290;-71.354;2024-01-30T02:11:30;101250.63;;;1.28;66.06
81379;BME280;70830;42.290;-71.354;2024-01-30T02:13:57;101249.75;;;1.28;66.14
81379;BME280;70830;42.290;-71.354;2024-01-30T02:16:27;101248.91;;;1.29;65.88
81379;BME280;70830;42.290;-71.354;2024-01-30T02:18:53;101242.78;;;1.19;66.32
81379;BME280;70830;42.290;-71.354;2024-01-30T02:21:19;101256.66;;;1.26;66.34
81379;BME280;70830;42.290;-71.354;2024-01-30T02:23:47;101263.56;;;1.25;67.25
81379;BME280;70830;42.290;-71.354;2024-01-30T02:26:14;101257.47;;;1.20;67.52
81379;BME280;70830;42.290;-71.354;2024-01-30T02:28:40;101241.81;;;1.05;67.35
81379;BME280;70830;42.290;-71.354;2024-01-30T02:31:06;101267.84;;;1.20;67.85
81379;BME280;70830;42.290;-71.354;2024-01-30T02:33:32;101286.03;;;1.19;68.09
81379;BME280;70830;42.290;-71.354;2024-01-30T02:35:58;101287.75;;;1.18;68.13
81379;BME280;70830;42.290;-71.354;2024-01-30T02:38:24;101283.44;;;1.17;68.93
81379;BME280;70830;42.290;-71.354;2024-01-30T02:40:52;101283.41;;;1.16;68.77
81379;BME280;70830;42.290;-71.354;2024-01-30T02:43:18;101282.53;;;1.12;69.34
81379;BME280;70830;42.290;-71.354;2024-01-30T02:45:44;101278.16;;;1.07;69.02
81379;BME280;70830;42.290;-71.354;2024-01-30T02:48:10;101292.03;;;1.10;69.23
81379;BME280;70830;42.290;-71.354;2024-01-30T02:50:36;101305.06;;;1.13;69.14
81379;BME280;70830;42.290;-71.354;2024-01-30T02:53:02;101309.34;;;1.10;68.96
81379;BME280;70830;42.290;-71.354;2024-01-30T02:55:28;101307.63;;;1.12;69.22
81379;BME280;70830;42.290;-71.354;2024-01-30T02:57:54;101305.00;;;1.07;68.69
81379;BME280;70830;42.290;-71.354;2024-01-30T03:00:20;101315.41;;;1.12;69.61
81379;BME280;70830;42.290;-71.354;2024-01-30T03:02:46;101303.25;;;1.03;69.07
81379;BME280;70830;42.290;-71.354;2024-01-30T03:05:12;101309.34;;;1.08;68.93
81379;BME280;70830;42.290;-71.354;2024-01-30T03:07:38;101322.31;;;1.08;69.08
81379;BME280;70830;42.290;-71.354;2024-01-30T03:10:05;101298.88;;;0.99;69.18
81379;BME280;70830;42.290;-71.354;2024-01-30T03:12:31;101320.59;;;1.12;70.04
81379;BME280;70830;42.290;-71.354;2024-01-30T03:14:57;101307.59;;;1.04;69.60
81379;BME280;70830;42.290;-71.354;2024-01-30T03:17:23;101318.84;;;1.09;69.17
81379;BME280;70830;42.290;-71.354;2024-01-30T03:19:50;101312.75;;;1.01;69.89
81379;BME280;70830;42.290;-71.354;2024-01-30T03:22:16;101328.34;;;1.07;69.70
81379;BME280;70830;42.290;-71.354;2024-01-30T03:24:42;101301.41;;;0.89;69.68
81379;BME280;70830;42.290;-71.354;2024-01-30T03:27:08;101337.00;;;1.05;69.49
81379;BME280;70830;42.290;-71.354;2024-01-30T03:29:34;101319.63;;;0.96;69.46
81379;BME280;70830;42.290;-71.354;2024-01-30T03:32:01;101316.09;;;0.91;69.76
81379;BME280;70830;42.290;-71.354;2024-01-30T03:34:26;101325.66;;;0.92;69.75
81379;BME280;70830;42.290;-71.354;2024-01-30T03:36:52;101340.41;;;0.99;69.15
81379;BME280;70830;42.290;-71.354;2024-01-30T03:39:18;101354.25;;;0.98;69.78
81379;BME280;70830;42.290;-71.354;2024-01-30T03:41:44;101356.84;;;0.97;70.40
81379;BME280;70830;42.290;-71.354;2024-01-30T03:44:10;101341.22;;;0.92;70.08
81379;BME280;70830;42.290;-71.354;2024-01-30T03:46:36;101340.31;;;0.87;70.68
81379;BME280;70830;42.290;-71.354;2024-01-30T03:49:02;101345.53;;;0.90;69.93
81379;BME280;70830;42.290;-71.354;2024-01-30T03:51:28;101350.78;;;0.96;70.22
81379;BME280;70830;42.290;-71.354;2024-01-30T03:53:54;101353.31;;;0.90;70.31
81379;BME280;70830;42.290;-71.354;2024-01-30T03:56:20;101361.16;;;0.93;69.88
81379;BME280;70830;42.290;-71.354;2024-01-30T03:58:46;101364.59;;;0.91;70.07
81379;BME280;70830;42.290;-71.354;2024-01-30T04:01:15;101373.25;;;0.93;70.00
81379;BME280;70830;42.290;-71.354;2024-01-30T04:03:41;101357.56;;;0.81;69.72
81379;BME280;70830;42.290;-71.354;2024-01-30T04:06:09;101367.13;;;0.86;69.91
81379;BME280;70830;42.290;-71.354;2024-01-30T04:08:37;101379.28;;;0.89;69.88
81379;BME280;70830;42.290;-71.354;2024-01-30T04:11:06;101373.22;;;0.88;69.54
81379;BME280;70830;42.290;-71.354;2024-01-30T04:13:33;101351.44;;;0.74;70.03
81379;BME280;70830;42.290;-71.354;2024-01-30T04:16:02;101376.66;;;0.87;69.34
81379;BME280;70830;42.290;-71.354;2024-01-30T04:18:28;101358.38;;;0.77;69.75
81379;BME280;70830;42.290;-71.354;2024-01-30T04:20:54;101381.81;;;0.84;69.59
81379;BME280;70830;42.290;-71.354;2024-01-30T04:23:21;101384.38;;;0.83;70.49
81379;BME280;70830;42.290;-71.354;2024-01-30T04:25:46;101359.16;;;0.66;69.98
81379;BME280;70830;42.290;-71.354;2024-01-30T04:28:12;101370.41;;;0.67;70.32
81379;BME280;70830;42.290;-71.354;2024-01-30T04:30:39;101382.56;;;0.72;69.81
81379;BME280;70830;42.290;-71.354;2024-01-30T04:33:05;101392.97;;;0.74;69.80
81379;BME280;70830;42.290;-71.354;2024-01-30T04:35:30;101394.66;;;0.72;70.80
81379;BME280;70830;42.290;-71.354;2024-01-30T04:37:56;101391.19;;;0.68;69.98
81379;BME280;70830;42.290;-71.354;2024-01-30T04:40:23;101395.56;;;0.72;70.34
81379;BME280;70830;42.290;-71.354;2024-01-30T04:42:49;101383.38;;;0.65;70.12
81379;BME280;70830;42.290;-71.354;2024-01-30T04:45:15;101387.72;;;0.69;70.03
81379;BME280;70830;42.290;-71.354;2024-01-30T04:47:41;101376.38;;;0.58;70.43
81379;BME280;70830;42.290;-71.354;2024-01-30T04:50:07;101354.63;;;0.46;70.38
81379;BME280;70830;42.290;-71.354;2024-01-30T04:52:34;101397.16;;;0.63;70.64
81379;BME280;70830;42.290;-71.354;2024-01-30T04:55:00;101371.91;;;0.47;70.53
81379;BME280;70830;42.290;-71.354;2024-01-30T04:57:26;101392.81;;;0.57;70.77
81379;BME280;70830;42.290;-71.354;2024-01-30T04:59:52;101404.06;;;0.62;70.50
81379;BME280;70830;42.290;-71.354;2024-01-30T05:02:18;101384.03;;;0.49;70.35
81379;BME280;70830;42.290;-71.354;2024-01-30T05:04:43;101400.53;;;0.53;70.55
81379;BME280;70830;42.290;-71.354;2024-01-30T05:07:09;101403.97;;;0.52;70.66
81379;BME280;70830;42.290;-71.354;2024-01-30T05:09:35;101384.00;;;0.43;70.65
81379;BME280;70830;42.290;-71.354;2024-01-30T05:12:01;101407.38;;;0.48;71.21
81379;BME280;70830;42.290;-71.354;2024-01-30T05:14:27;101407.44;;;0.51;71.21
81379;BME280;70830;42.290;-71.354;2024-01-30T05:16:53;101389.94;;;0.35;70.66
81379;BME280;70830;42.290;-71.354;2024-01-30T05:19:19;101425.59;;;0.54;70.63
81379;BME280;70830;42.290;-71.354;2024-01-30T05:21:45;101416.06;;;0.50;70.87
81379;BME280;70830;42.290;-71.354;2024-01-30T05:24:11;101435.16;;;0.58;71.35
81379;BME280;70830;42.290;-71.354;2024-01-30T05:26:38;101411.69;;;0.47;70.79
81379;BME280;70830;42.290;-71.354;2024-01-30T05:29:05;101434.25;;;0.54;71.46
81379;BME280;70830;42.290;-71.354;2024-01-30T05:31:30;101416.00;;;0.47;71.06
81379;BME280;70830;42.290;-71.354;2024-01-30T05:33:56;101433.38;;;0.54;70.91
81379;BME280;70830;42.290;-71.354;2024-01-30T05:36:22;101431.66;;;0.53;71.56
81379;BME280;70830;42.290;-71.354;2024-01-30T05:38:48;101404.63;;;0.36;71.39
81379;BME280;70830;42.290;-71.354;2024-01-30T05:41:14;101452.47;;;0.59;70.99
81379;BME280;70830;42.290;-71.354;2024-01-30T05:43:40;101451.59;;;0.55;71.36
81379;BME280;70830;42.290;-71.354;2024-01-30T05:46:09;101453.31;;;0.56;70.99
81379;BME280;70830;42.290;-71.354;2024-01-30T05:48:35;101435.03;;;0.46;71.93
81379;BME280;70830;42.290;-71.354;2024-01-30T05:51:02;101447.13;;;0.47;71.35
81379;BME280;70830;42.290;-71.354;2024-01-30T05:53:29;101455.91;;;0.55;71.44
81379;BME280;70830;42.290;-71.354;2024-01-30T05:55:55;101462.84;;;0.59;71.67
81379;BME280;70830;42.290;-71.354;2024-01-30T05:58:21;101453.31;;;0.55;71.25
81379;BME280;70830;42.290;-71.354;2024-01-30T06:00:47;101457.66;;;0.59;71.11
81379;BME280;70830;42.290;-71.354;2024-01-30T06:03:13;101469.81;;;0.60;71.40
81379;BME280;70830;42.290;-71.354;2024-01-30T06:05:39;101467.22;;;0.60;71.16
81379;BME280;70830;42.290;-71.354;2024-01-30T06:08:05;101456.72;;;0.52;71.70
81379;BME280;70830;42.290;-71.354;2024-01-30T06:10:31;101475.81;;;0.57;71.83
81379;BME280;70830;42.290;-71.354;2024-01-30T06:12:57;101460.97;;;0.46;70.98
81379;BME280;70830;42.290;-71.354;2024-01-30T06:15:23;101479.25;;;0.55;71.48
81379;BME280;70830;42.290;-71.354;2024-01-30T06:17:49;101491.34;;;0.56;72.22
81379;BME280;70830;42.290;-71.354;2024-01-30T06:20:15;101486.16;;;0.56;71.55
81379;BME280;70830;42.290;-71.354;2024-01-30T06:22:41;101478.31;;;0.51;72.03
81379;BME280;70830;42.290;-71.354;2024-01-30T06:25:07;101491.31;;;0.53;71.90
81379;BME280;70830;42.290;-71.354;2024-01-30T06:27:33;101470.47;;;0.44;72.17
81379;BME280;70830;42.290;-71.354;2024-01-30T06:29:59;101489.56;;;0.53;72.05
81379;BME280;70830;42.290;-71.354;2024-01-30T06:32:25;101465.16;;;0.36;71.76
81379;BME280;70830;42.290;-71.354;2024-01-30T06:34:51;101496.41;;;0.47;71.86
81379;BME280;70830;42.290;-71.354;2024-01-30T06:37:17;101492.91;;;0.43;72.42
81379;BME280;70830;42.290;-71.354;2024-01-30T06:39:43;101506.84;;;0.50;72.09
81379;BME280;70830;42.290;-71.354;2024-01-30T06:42:09;101499.94;;;0.50;71.71
81379;BME280;70830;42.290;-71.354;2024-01-30T06:44:36;101506.84;;;0.50;72.30
81379;BME280;70830;42.290;-71.354;2024-01-30T06:47:02;101509.38;;;0.47;71.61
81379;BME280;70830;42.290;-71.354;2024-01-30T06:49:28;101517.22;;;0.48;72.14
81379;BME280;70830;42.290;-71.354;2024-01-30T06:51:54;101528.47;;;0.52;72.17
81379;BME280;70830;42.290;-71.354;2024-01-30T06:54:20;101498.00;;;0.36;71.81
81379;BME280;70830;42.290;-71.354;2024-01-30T06:56:46;101531.97;;;0.54;71.83
81379;BME280;70830;42.290;-71.354;2024-01-30T06:59:12;101514.44;;;0.35;71.51
81379;BME280;70830;42.290;-71.354;2024-01-30T07:01:38;101528.41;;;0.46;71.85
81379;BME280;70830;42.290;-71.354;2024-01-30T07:04:04;101537.91;;;0.45;71.63
81379;BME280;70830;42.290;-71.354;2024-01-30T07:06:30;101530.06;;;0.42;72.04
81379;BME280;70830;42.290;-71.354;2024-01-30T07:08:56;101508.31;;;0.30;71.95
81379;BME280;70830;42.290;-71.354;2024-01-30T07:11:22;101535.31;;;0.44;72.13
81379;BME280;70830;42.290;-71.354;2024-01-30T07:13:50;101536.19;;;0.44;72.28
81379;BME280;70830;42.290;-71.354;2024-01-30T07:16:16;101546.50;;;0.41;71.94
81379;BME280;70830;42.290;-71.354;2024-01-30T07:18:43;101545.63;;;0.39;71.90
81379;BME280;70830;42.290;-71.354;2024-01-30T07:21:09;101527.31;;;0.29;71.07
81379;BME280;70830;42.290;-71.354;2024-01-30T07:23:35;101551.56;;;0.34;71.48
81379;BME280;70830;42.290;-71.354;2024-01-30T07:26:05;101536.81;;;0.28;71.52
81379;BME280;70830;42.290;-71.354;2024-01-30T07:28:32;101538.44;;;0.22;71.08
81379;BME280;70830;42.290;-71.354;2024-01-30T07:30:58;101534.09;;;0.21;71.00
81379;BME280;70830;42.290;-71.354;2024-01-30T07:33:24;101534.03;;;0.16;71.19
81379;BME280;70830;42.290;-71.354;2024-01-30T07:35:52;101550.47;;;0.17;71.11
81379;BME280;70830;42.290;-71.354;2024-01-30T07:38:19;101551.31;;;0.16;71.03
81379;BME280;70830;42.290;-71.354;2024-01-30T07:40:45;101540.91;;;0.11;71.29
81379;BME280;70830;42.290;-71.354;2024-01-30T07:43:11;101561.78;;;0.22;71.13
81379;BME280;70830;42.290;-71.354;2024-01-30T07:45:37;101562.69;;;0.24;71.06
81379;BME280;70830;42.290;-71.354;2024-01-30T07:48:05;101556.63;;;0.25;70.61
81379;BME280;70830;42.290;-71.354;2024-01-30T07:50:31;101558.25;;;0.18;71.43
81379;BME280;70830;42.290;-71.354;2024-01-30T07:52:59;101546.91;;;0.09;70.99
81379;BME280;70830;42.290;-71.354;2024-01-30T07:55:25;101547.72;;;0.08;70.92
81379;BME280;70830;42.290;-71.354;2024-01-30T07:57:54;101567.88;;;0.24;70.17
81379;BME280;70830;42.290;-71.354;2024-01-30T08:00:21;101573.00;;;0.21;70.17
81379;BME280;70830;42.290;-71.354;2024-01-30T08:02:47;101579.06;;;0.21;70.62
81379;BME280;70830;42.290;-71.354;2024-01-30T08:05:14;101579.88;;;0.20;70.58
81379;BME280;70830;42.290;-71.354;2024-01-30T08:07:44;101573.88;;;0.21;70.52
81379;BME280;70830;42.290;-71.354;2024-01-30T08:10:12;101587.75;;;0.25;69.80
81379;BME280;70830;42.290;-71.354;2024-01-30T08:12:39;101585.13;;;0.23;70.45
81379;BME280;70830;42.290;-71.354;2024-01-30T08:15:05;101607.59;;;0.23;69.53
81379;BME280;70830;42.290;-71.354;2024-01-30T08:17:31;101592.00;;;0.20;69.68
81379;BME280;70830;42.290;-71.354;2024-01-30T08:19:57;101597.19;;;0.20;69.31
81379;BME280;70830;42.290;-71.354;2024-01-30T08:22:23;101576.25;;;0.09;69.87
81379;BME280;70830;42.290;-71.354;2024-01-30T08:24:49;101597.19;;;0.20;70.41
81379;BME280;70830;42.290;-71.354;2024-01-30T08:27:15;101593.72;;;0.21;69.11
81379;BME280;70830;42.290;-71.354;2024-01-30T08:29:42;101583.22;;;0.12;69.51
81379;BME280;70830;42.290;-71.354;2024-01-30T08:32:08;101600.72;;;0.25;70.17
81379;BME280;70830;42.290;-71.354;2024-01-30T08:34:34;101599.88;;;0.26;69.56
81379;BME280;70830;42.290;-71.354;2024-01-30T08:36:59;101596.38;;;0.24;69.17
81379;BME280;70830;42.290;-71.354;2024-01-30T08:39:25;101582.41;;;0.16;69.83
81379;BME280;70830;42.290;-71.354;2024-01-30T08:41:51;101590.31;;;0.22;69.81
81379;BME280;70830;42.290;-71.354;2024-01-30T08:44:17;101595.50;;;0.25;69.39
81379;BME280;70830;42.290;-71.354;2024-01-30T08:46:46;101592.06;;;0.24;69.38
81379;BME280;70830;42.290;-71.354;2024-01-30T08:49:13;101598.19;;;0.29;69.24
81379;BME280;70830;42.290;-71.354;2024-01-30T08:51:39;101595.56;;;0.26;69.60
81379;BME280;70830;42.290;-71.354;2024-01-30T08:54:05;101595.56;;;0.28;69.05
81379;BME280;70830;42.290;-71.354;2024-01-30T08:56:31;101608.63;;;0.32;69.69
81379;BME280;70830;42.290;-71.354;2024-01-30T08:58:57;101588.59;;;0.24;69.36
81379;BME280;70830;42.290;-71.354;2024-01-30T09:01:23;101584.22;;;0.20;69.55
81379;BME280;70830;42.290;-71.354;2024-01-30T09:03:52;101589.34;;;0.17;69.98
81379;BME280;70830;42.290;-71.354;2024-01-30T09:06:18;101597.22;;;0.21;69.88
81379;BME280;70830;42.290;-71.354;2024-01-30T09:08:43;101595.44;;;0.19;69.37
81379;BME280;70830;42.290;-71.354;2024-01-30T09:11:13;101625.88;;;0.32;69.46
81379;BME280;70830;42.290;-71.354;2024-01-30T09:13:39;101625.88;;;0.29;69.40
81379;BME280;70830;42.290;-71.354;2024-01-30T09:16:06;101621.50;;;0.26;69.41
81379;BME280;70830;42.290;-71.354;2024-01-30T09:18:32;101627.53;;;0.27;68.47
81379;BME280;70830;42.290;-71.354;2024-01-30T09:20:58;101627.53;;;0.27;69.10
81379;BME280;70830;42.290;-71.354;2024-01-30T09:23:24;101627.50;;;0.25;69.53
81379;BME280;70830;42.290;-71.354;2024-01-30T09:25:51;101611.78;;;0.15;69.27
81379;BME280;70830;42.290;-71.354;2024-01-30T09:28:19;101625.78;;;0.24;68.85
81379;BME280;70830;42.290;-71.354;2024-01-30T09:30:45;101617.03;;;0.18;69.61
81379;BME280;70830;42.290;-71.354;2024-01-30T09:33:11;101640.41;;;0.21;69.66
81379;BME280;70830;42.290;-71.354;2024-01-30T09:35:37;101636.09;;;0.20;69.27
81379;BME280;70830;42.290;-71.354;2024-01-30T09:38:03;101642.97;;;0.19;69.45
81379;BME280;70830;42.290;-71.354;2024-01-30T09:40:29;101608.16;;;0.02;69.30
81379;BME280;70830;42.290;-71.354;2024-01-30T09:42:55;101649.06;;;0.20;69.56
81379;BME280;70830;42.290;-71.354;2024-01-30T09:45:26;101649.81;;;0.16;69.81
81379;BME280;70830;42.290;-71.354;2024-01-30T09:47:52;101661.97;;;0.18;69.78
81379;BME280;70830;42.290;-71.354;2024-01-30T09:50:19;101667.16;;;0.18;69.32
81379;BME280;70830;42.290;-71.354;2024-01-30T09:52:46;101653.13;;;0.07;69.34
81379;BME280;70830;42.290;-71.354;2024-01-30T09:55:12;101664.44;;;0.11;69.83
81379;BME280;70830;42.290;-71.354;2024-01-30T09:57:39;101677.53;;;0.18;69.45
81379;BME280;70830;42.290;-71.354;2024-01-30T10:00:06;101674.94;;;0.18;69.32
81379;BME280;70830;42.290;-71.354;2024-01-30T10:02:35;101684.41;;;0.16;69.35
81379;BME280;70830;42.290;-71.354;2024-01-30T10:05:02;101668.81;;;0.13;69.20
81379;BME280;70830;42.290;-71.354;2024-01-30T10:07:28;101682.75;;;0.20;69.52
81379;BME280;70830;42.290;-71.354;2024-01-30T10:09:54;101687.03;;;0.18;69.42
81379;BME280;70830;42.290;-71.354;2024-01-30T10:12:29;101684.38;;;0.13;69.58
81379;BME280;70830;42.290;-71.354;2024-01-30T10:14:56;101678.25;;;0.10;70.25
81379;BME280;70830;42.290;-71.354;2024-01-30T10:17:25;101697.44;;;0.21;69.17
81379;BME280;70830;42.290;-71.354;2024-01-30T10:19:52;101680.84;;;0.10;68.71
81379;BME280;70830;42.290;-71.354;2024-01-30T10:22:18;101707.78;;;0.18;68.74
81379;BME280;70830;42.290;-71.354;2024-01-30T10:24:45;101696.47;;;0.13;69.41
81379;BME280;70830;42.290;-71.354;2024-01-30T10:27:11;101678.16;;;0.04;69.46
81379;BME280;70830;42.290;-71.354;2024-01-30T10:29:37;101694.69;;;0.10;69.24
81379;BME280;70830;42.290;-71.354;2024-01-30T10:32:04;101698.22;;;0.15;69.08
81379;BME280;70830;42.290;-71.354;2024-01-30T10:34:31;101678.94;;;-0.01;69.17
81379;BME280;70830;42.290;-71.354;2024-01-30T10:37:11;101693.78;;;0.07;69.57
81379;BME280;70830;42.290;-71.354;2024-01-30T10:39:44;101699.03;;;0.11;69.41
81379;BME280;70830;42.290;-71.354;2024-01-30T10:42:15;101702.47;;;0.12;69.42
81379;BME280;70830;42.290;-71.354;2024-01-30T10:44:59;101709.34;;;0.10;68.66
81379;BME280;70830;42.290;-71.354;2024-01-30T10:47:27;101718.81;;;0.06;68.05
81379;BME280;70830;42.290;-71.354;2024-01-30T10:49:54;101718.72;;;0.02;68.11
81379;BME280;70830;42.290;-71.354;2024-01-30T10:52:23;101720.50;;;0.04;68.54
81379;BME280;70830;42.290;-71.354;2024-01-30T10:54:54;101723.09;;;0.04;68.37
81379;BME280;70830;42.290;-71.354;2024-01-30T10:57:24;101716.06;;;-0.02;67.90
81379;BME280;70830;42.290;-71.354;2024-01-30T10:59:53;101722.16;;;0.00;68.14
81379;BME280;70830;42.290;-71.354;2024-01-30T11:02:21;101711.34;;;-0.22;68.13
81379;BME280;70830;42.290;-71.354;2024-01-30T11:04:49;101747.97;;;-0.06;68.44
81379;BME280;70830;42.290;-71.354;2024-01-30T11:07:19;101748.78;;;-0.07;68.05
81379;BME280;70830;42.290;-71.354;2024-01-30T11:10:07;101751.38;;;-0.08;69.19
81379;BME280;70830;42.290;-71.354;2024-01-30T11:12:39;101753.03;;;-0.12;69.19
81379;BME280;70830;42.290;-71.354;2024-01-30T11:15:10;101754.81;;;-0.09;68.97
81379;BME280;70830;42.290;-71.354;2024-01-30T11:17:50;101751.25;;;-0.14;69.47
81379;BME280;70830;42.290;-71.354;2024-01-30T11:20:20;101765.22;;;-0.08;69.50
81379;BME280;70830;42.290;-71.354;2024-01-30T11:22:48;101763.41;;;-0.12;69.37
81379;BME280;70830;42.290;-71.354;2024-01-30T11:25:16;101764.94;;;-0.21;69.64
81379;BME280;70830;42.290;-71.354;2024-01-30T11:27:46;101758.75;;;-0.28;69.79
81379;BME280;70830;42.290;-71.354;2024-01-30T11:30:28;101748.97;;;-0.42;70.18
81379;BME280;70830;42.290;-71.354;2024-01-30T11:33:04;101774.19;;;-0.34;70.29
81379;BME280;70830;42.290;-71.354;2024-01-30T11:35:35;101775.81;;;-0.39;69.78
81379;BME280;70830;42.290;-71.354;2024-01-30T11:38:02;101753.88;;;-0.54;69.71
81379;BME280;70830;42.290;-71.354;2024-01-30T11:40:30;101776.50;;;-0.47;69.79
81379;BME280;70830;42.290;-71.354;2024-01-30T11:42:59;101779.03;;;-0.49;70.18
81379;BME280;70830;42.290;-71.354;2024-01-30T11:45:28;101789.47;;;-0.46;69.66
81379;BME280;70830;42.290;-71.354;2024-01-30T11:47:55;101761.44;;;-0.65;69.65
81379;BME280;70830;42.290;-71.354;2024-01-30T11:50:21;101794.56;;;-0.49;69.54
81379;BME280;70830;42.290;-71.354;2024-01-30T11:52:50;101805.81;;;-0.48;69.59
81379;BME280;70830;42.290;-71.354;2024-01-30T11:55:16;101807.56;;;-0.47;70.01
81379;BME280;70830;42.290;-71.354;2024-01-30T11:57:43;101808.44;;;-0.47;70.40
81379;BME280;70830;42.290;-71.354;2024-01-30T12:00:16;101784.78;;;-0.62;70.11
81379;BME280;70830;42.290;-71.354;2024-01-30T12:02:42;101823.16;;;-0.44;70.16
81379;BME280;70830;42.290;-71.354;2024-01-30T12:05:09;101814.44;;;-0.49;70.49
81379;BME280;70830;42.290;-71.354;2024-01-30T12:07:35;101814.28;;;-0.55;69.57
81379;BME280;70830;42.290;-71.354;2024-01-30T12:10:01;101827.44;;;-0.46;69.95
81379;BME280;70830;42.290;-71.354;2024-01-30T12:12:29;101823.09;;;-0.47;69.45
81379;BME280;70830;42.290;-71.354;2024-01-30T12:14:56;101813.47;;;-0.53;69.58
81379;BME280;70830;42.290;-71.354;2024-01-30T12:17:31;101827.59;;;-0.39;69.54
81379;BME280;70830;42.290;-71.354;2024-01-30T12:22:36;101835.41;;;-0.37;69.08
81379;BME280;70830;42.290;-71.354;2024-01-30T12:25:07;101839.69;;;-0.39;69.52
81379;BME280;70830;42.290;-71.354;2024-01-30T12:27:34;101819.66;;;-0.46;70.02
81379;BME280;70830;42.290;-71.354;2024-01-30T12:30:00;101842.47;;;-0.30;70.00
81379;BME280;70830;42.290;-71.354;2024-01-30T12:32:26;101852.81;;;-0.32;69.13
81379;BME280;70830;42.290;-71.354;2024-01-30T12:34:55;101857.22;;;-0.28;69.11
81379;BME280;70830;42.290;-71.354;2024-01-30T12:37:22;101859.94;;;-0.22;69.89
81379;BME280;70830;42.290;-71.354;2024-01-30T12:39:52;101845.09;;;-0.29;69.70